Airfield :
LOGIN :

Register | Disclaimer

   EN    FR    IT 

 










Legend :    VFR   Marginal VFR   IFR   Intensive IFR   Very Intensive IFR
Visi :
Ceiling :
>= 8 km
>= 3000ft
5 to 8 km
1000 to 3000 ft
1500m to 5 km
500 to 1000 ft
800 to 1500m
200 to 500 ft
< 800m
< 200 ft
Symbols :   Thunderstorms  Fog  Heavy snow  Heavy precipitations  Wind > 20 kt
SIGMETs :     Misc.  Thunderstorms  Icing  Turbulence  Mountain Waves  Volcanic Ashes






- Airport Elevation : 1300 ft
- IATA code : LIG


LFBL - Limoges

CURRENT METAR :
  • 170700Z AUTO VRB03KT 1000 0400 R21/1300U R03/0600U BCFG VV/// 02/02 Q1035 TEMPO 0300

EXPIRED METARs :
  • 170630Z AUTO VRB02KT 1200 0450 R21/2400U R03/0500N BCFG VV/// 03/03 Q1035 TEMPO 0300
  • 170600Z AUTO VRB03KT 0650 0450 R21/1100U R03/0550N FG VV/// 03/03 Q1035 TEMPO 0300
  • 170530Z AUTO 34006KT 310V010 0550 0400 R21/0800D R03/0650U FG VV/// 03/03 Q1034 TEMPO 0300
  • 170500Z AUTO 33002KT 0450 0400 R21/0450N R03/0450D FG VV/// 02/02 Q1034 NOSIG
  • 170430Z AUTO 04003KT 0700 0650 R21/0700D R03/2000U FG VV/// 02/02 Q1034 BECMG 0400 FG

TAF TAF LFBL
Valid from the 17 at 06:00 until the 18 at 06:00 UTC


170500Z 1706/1806 VRB03KT 0600 FG VV///
TEMPO 1706/1709 0300
BECMG 1710/1712 6000 NSW BKN007
PROB40
TEMPO 1712/1718 04010KT SCT010
BECMG 1803/1805 04012KT CAVOK
ATIS : +33 5 55 48 40 37



MET'MAP, your aeronautical weather chart ! - Copyright ORBIFLY December 2007 - Disclaimer

ORBIFLY MET'MAP TEAM :

Programming & Development : Alexandra Zaïnal
Concept & original design : Baudouin d'Aumeries
Assistance for programming : Marc-Olivier Méhu
Technical & hardware support : Manuel Goepfert

Contact : metmap@orbifly.com




SOURCES & CREDITS :

   NOAA